Time;durP1;ratioP1;P1;durP2;ratioP2;P2;SDS_P1;SDS_P2;PMS_P1;PMS_P2;Temp;Humidity;BMP_temperature;BMP_pressure;BME280_temperature;BME280_humidity;BME280_pressure;Samples;Min_cycle;Max_cycle;Signal;HPM_P1;HPM_P2
2023/04/10 00:00:05;;;;;;;13.57;7.47;;;2.10;37.10;;;;;;5029335;28;46897;-66
2023/04/10 00:02:32;;;;;;;12.20;7.60;;;2.10;37.10;;;;;;5025558;28;46425;-66
2023/04/10 00:04:59;;;;;;;12.48;7.53;;;2.10;37.20;;;;;;5030419;28;46446;-66
2023/04/10 00:07:25;;;;;;;14.03;7.90;;;2.10;37.20;;;;;;5031653;28;46491;-66
2023/04/10 00:09:51;;;;;;;11.43;7.40;;;2.10;37.20;;;;;;5026036;28;46452;-66
2023/04/10 00:12:16;;;;;;;11.90;6.73;;;2.00;37.10;;;;;;5030308;28;46520;-65
2023/04/10 00:14:42;;;;;;;10.20;5.90;;;1.90;37.30;;;;;;5029827;28;46503;-66
2023/04/10 00:17:08;;;;;;;13.47;7.10;;;1.80;37.50;;;;;;5029086;28;46547;-66
2023/04/10 00:19:34;;;;;;;10.80;7.10;;;1.70;37.70;;;;;;5028288;28;47170;-66
2023/04/10 00:21:59;;;;;;;11.60;6.60;;;1.70;37.90;;;;;;5027151;28;46402;-65
2023/04/10 00:24:25;;;;;;;12.53;7.77;;;1.60;37.90;;;;;;5035325;28;46401;-64
2023/04/10 00:26:51;;;;;;;15.60;8.27;;;1.60;38.00;;;;;;5029997;28;46267;-66
2023/04/10 00:29:16;;;;;;;13.07;8.53;;;1.50;37.90;;;;;;5026327;28;46006;-66
2023/04/10 00:31:42;;;;;;;14.10;8.13;;;1.50;38.00;;;;;;5029974;28;46413;-66
2023/04/10 00:34:08;;;;;;;13.57;7.67;;;1.60;38.10;;;;;;5029908;28;46420;-64
2023/04/10 00:36:34;;;;;;;17.03;8.90;;;1.60;38.00;;;;;;5031233;28;46443;-65
2023/04/10 00:39:00;;;;;;;14.90;8.57;;;1.60;38.00;;;;;;5026716;28;47231;-65
2023/04/10 00:41:26;;;;;;;15.13;8.55;;;1.60;38.00;;;;;;5032698;28;46338;-65
2023/04/10 00:43:57;;;;;;;17.00;8.85;;;1.60;38.00;;;;;;5027553;28;46570;-65
2023/04/10 00:46:23;;;;;;;16.95;8.35;;;1.60;37.80;;;;;;5028314;28;46479;-66
2023/04/10 00:48:55;;;;;;;15.07;8.55;;;1.60;37.90;;;;;;5028209;28;46233;-66
2023/04/10 00:51:21;;;;;;;15.20;8.50;;;1.70;38.10;;;;;;5028299;28;46487;-66
2023/04/10 00:53:50;;;;;;;15.35;9.05;;;1.70;37.90;;;;;;5024343;28;46213;-66
2023/04/10 00:56:16;;;;;;;18.02;9.75;;;1.80;37.90;;;;;;5026668;28;46325;-64
2023/04/10 00:58:41;;;;;;;16.45;9.18;;;2.00;38.00;;;;;;5025592;28;46516;-65
2023/04/10 01:01:07;;;;;;;23.50;11.40;;;2.10;37.90;;;;;;5024607;28;46464;-65
2023/04/10 01:03:34;;;;;;;16.03;9.00;;;2.10;38.00;;;;;;5026039;28;46322;-65
2023/04/10 01:06:10;;;;;;;16.80;9.77;;;2.20;38.10;;;;;;5028910;28;45789;-66
2023/04/10 01:09:16;;;;;;;14.00;7.70;;;2.20;38.10;;;;;;5026024;28;47096;-65
2023/04/10 01:12:12;;;;;;;15.23;8.23;;;2.20;38.30;;;;;;5025858;28;46291;-66
2023/04/10 01:15:05;;;;;;;16.15;8.70;;;2.20;38.20;;;;;;5030821;28;46419;-66
2023/04/10 01:17:36;;;;;;;14.13;8.88;;;2.20;38.30;;;;;;5031803;28;46479;-66
2023/04/10 01:20:23;;;;;;;13.80;7.32;;;2.20;38.30;;;;;;5026471;28;46334;-64
2023/04/10 01:23:20;;;;;;;13.43;7.95;;;2.20;38.30;;;;;;5029635;28;46413;-66
2023/04/10 01:25:58;;;;;;;12.00;7.80;;;2.30;38.40;;;;;;5029473;28;46186;-66
2023/04/10 01:28:52;;;;;;;14.07;7.50;;;2.30;38.30;;;;;;5031430;28;46383;-66
2023/04/10 01:31:26;;;;;;;12.60;7.03;;;2.20;38.60;;;;;;5028983;28;46334;-66
2023/04/10 01:33:57;;;;;;;12.90;7.55;;;2.10;38.60;;;;;;5025535;28;46629;-67
2023/04/10 01:36:30;;;;;;;9.95;6.63;;;2.00;38.80;;;;;;5029410;28;46422;-66
2023/04/10 01:38:57;;;;;;;12.48;6.72;;;1.90;39.00;;;;;;5035853;28;46445;-67
2023/04/10 01:41:25;;;;;;;11.18;7.00;;;1.80;39.30;;;;;;5026944;28;46488;-66
2023/04/10 01:43:52;;;;;;;11.93;6.60;;;1.70;39.60;;;;;;5026664;28;46417;-66
2023/04/10 01:46:19;;;;;;;12.45;6.65;;;1.50;39.80;;;;;;5029026;28;46472;-65
2023/04/10 01:48:46;;;;;;;11.10;6.88;;;1.60;41.20;;;;;;5028474;28;46355;-66
2023/04/10 01:51:12;;;;;;;10.25;6.50;;;1.40;40.00;;;;;;5028702;28;47150;-66
2023/04/10 01:53:39;;;;;;;12.40;7.18;;;1.30;40.00;;;;;;5027433;28;45931;-66
2023/04/10 01:56:07;;;;;;;11.00;6.32;;;1.30;40.20;;;;;;5030805;28;46349;-65
2023/04/10 01:58:34;;;;;;;10.98;7.15;;;1.30;40.10;;;;;;5029031;28;46493;-65
2023/04/10 02:01:00;;;;;;;12.23;6.57;;;1.30;40.20;;;;;;5029847;28;47198;-66
2023/04/10 02:03:26;;;;;;;11.20;6.55;;;1.20;40.00;;;;;;5026230;28;46532;-66
2023/04/10 02:06:15;;;;;;;13.07;7.50;;;1.20;40.00;;;;;;5028086;28;46387;-66
2023/04/10 02:08:49;;;;;;;12.30;7.05;;;1.30;40.00;;;;;;5024770;28;46453;-67
2023/04/10 02:11:28;;;;;;;13.77;7.80;;;1.40;39.80;;;;;;5029587;28;46516;-66
2023/04/10 02:13:57;;;;;;;13.45;7.45;;;1.30;39.60;;;;;;5028614;28;46531;-65
2023/04/10 02:16:23;;;;;;;13.35;7.35;;;1.40;39.60;;;;;;5030335;28;46325;-66
2023/04/10 02:18:50;;;;;;;15.13;7.60;;;1.30;39.50;;;;;;5030416;28;45945;-66
2023/04/10 02:21:16;;;;;;;11.25;7.10;;;1.40;39.60;;;;;;5029275;28;48181;-65
2023/04/10 02:23:42;;;;;;;14.50;8.00;;;1.60;39.80;;;;;;5033477;28;46472;-66
2023/04/10 02:26:08;;;;;;;19.53;10.73;;;1.50;41.00;;;;;;5034113;28;46408;-66
2023/04/10 02:28:34;;;;;;;15.98;9.63;;;1.50;40.10;;;;;;5033241;28;46570;-66
2023/04/10 02:30:59;;;;;;;15.87;9.20;;;1.50;40.30;;;;;;5032724;28;46271;-66
2023/04/10 02:33:25;;;;;;;14.50;8.13;;;1.50;40.30;;;;;;5033550;28;46277;-65
2023/04/10 02:35:50;;;;;;;15.27;8.97;;;1.40;40.30;;;;;;5037736;28;46812;-66
2023/04/10 02:38:16;;;;;;;12.27;7.40;;;1.50;40.40;;;;;;5027921;28;45826;-66
2023/04/10 02:40:42;;;;;;;13.03;7.90;;;1.50;40.50;;;;;;5033083;28;47042;-66
2023/04/10 02:43:07;;;;;;;14.73;8.13;;;1.50;40.50;;;;;;5031149;28;46536;-65
2023/04/10 02:45:33;;;;;;;14.30;8.67;;;1.50;40.50;;;;;;5033541;28;46339;-66
2023/04/10 02:47:59;;;;;;;14.30;8.00;;;1.60;40.50;;;;;;5029077;28;46473;-65
2023/04/10 02:50:28;;;;;;;12.30;7.53;;;1.60;40.50;;;;;;5030381;28;47040;-65
2023/04/10 02:52:54;;;;;;;12.73;8.18;;;1.60;40.40;;;;;;5034997;28;46384;-65
2023/04/10 02:55:19;;;;;;;14.70;8.20;;;1.60;40.50;;;;;;5034415;28;46363;-65
2023/04/10 02:57:45;;;;;;;13.97;8.13;;;1.50;40.50;;;;;;5027968;28;46623;-65
2023/04/10 03:00:12;;;;;;;13.77;8.03;;;1.50;40.70;;;;;;5031669;28;46411;-67
2023/04/10 03:02:37;;;;;;;11.90;7.20;;;1.40;40.80;;;;;;5034363;28;46407;-66
2023/04/10 03:05:03;;;;;;;12.20;7.13;;;1.30;41.00;;;;;;5029978;28;46402;-66
2023/04/10 03:07:29;;;;;;;14.57;8.07;;;1.30;42.30;;;;;;5032251;28;46621;-66
2023/04/10 03:09:54;;;;;;;13.33;8.33;;;1.30;41.00;;;;;;5029516;28;46153;-66
2023/04/10 03:12:20;;;;;;;17.97;9.40;;;1.40;41.00;;;;;;5032568;28;46493;-66
2023/04/10 03:14:46;;;;;;;36.23;18.23;;;1.30;40.90;;;;;;5029944;28;45772;-66
2023/04/10 03:17:12;;;;;;;25.57;12.73;;;1.40;42.20;;;;;;5036233;28;46539;-66
2023/04/10 03:19:37;;;;;;;13.93;8.20;;;1.50;41.10;;;;;;5032561;28;46322;-66
2023/04/10 03:22:03;;;;;;;13.13;8.03;;;1.40;41.00;;;;;;5028634;28;46487;-65
2023/04/10 03:24:32;;;;;;;13.93;7.60;;;1.20;41.40;;;;;;5034315;28;46221;-66
2023/04/10 03:26:57;;;;;;;13.43;7.18;;;1.10;41.60;;;;;;5033457;28;46305;-65
2023/04/10 03:29:23;;;;;;;10.27;7.07;;;1.00;41.60;;;;;;5029033;28;47439;-65
2023/04/10 03:31:48;;;;;;;11.43;6.77;;;0.90;41.50;;;;;;5029897;28;46398;-65
2023/04/10 03:34:14;;;;;;;13.03;6.60;;;0.90;41.60;;;;;;5034992;28;46410;-65
2023/04/10 03:36:40;;;;;;;13.10;7.20;;;0.80;41.70;;;;;;5029747;28;46295;-65
2023/04/10 03:39:05;;;;;;;12.30;6.93;;;0.70;41.90;;;;;;5030398;28;46453;-67
2023/04/10 03:41:31;;;;;;;12.10;7.03;;;0.70;42.00;;;;;;5030794;28;46386;-65
2023/04/10 03:43:56;;;;;;;13.97;8.00;;;0.70;42.00;;;;;;5029912;28;46331;-65
2023/04/10 03:46:22;;;;;;;16.57;8.27;;;0.70;41.70;;;;;;5030203;28;46307;-66
2023/04/10 03:48:49;;;;;;;13.43;7.90;;;0.90;41.70;;;;;;5030657;28;46418;-66
2023/04/10 03:51:15;;;;;;;15.88;8.25;;;0.90;41.60;;;;;;5033053;28;46409;-64
2023/04/10 03:53:41;;;;;;;13.77;7.83;;;1.00;41.30;;;;;;5029500;28;46353;-67
2023/04/10 03:56:07;;;;;;;13.67;8.10;;;1.10;41.30;;;;;;5032647;28;45939;-65
2023/04/10 03:58:33;;;;;;;13.55;8.13;;;1.10;41.20;;;;;;5031128;28;47031;-65
2023/04/10 04:00:58;;;;;;;12.27;8.30;;;1.10;41.10;;;;;;5029946;28;46413;-65
2023/04/10 04:03:24;;;;;;;12.53;6.77;;;1.10;41.20;;;;;;5029205;28;46499;-65
2023/04/10 04:05:50;;;;;;;11.40;6.57;;;1.10;41.30;;;;;;5034807;28;46452;-65
2023/04/10 04:08:16;;;;;;;13.30;7.60;;;1.00;41.40;;;;;;5026359;28;45896;-65
2023/04/10 04:10:42;;;;;;;13.53;7.03;;;0.90;41.60;;;;;;5031449;28;46378;-66
2023/04/10 04:13:07;;;;;;;13.60;7.93;;;0.90;41.60;;;;;;5033186;28;46404;-66
2023/04/10 04:15:33;;;;;;;11.30;6.90;;;0.90;41.80;;;;;;5030393;28;46375;-66
2023/04/10 04:17:59;;;;;;;14.17;8.30;;;0.80;41.80;;;;;;5032510;28;46413;-66
2023/04/10 04:20:25;;;;;;;14.80;8.15;;;0.80;41.70;;;;;;5033987;28;45966;-67
2023/04/10 04:22:50;;;;;;;15.47;8.10;;;0.90;41.80;;;;;;5030227;28;46408;-66
2023/04/10 04:25:18;;;;;;;15.57;8.00;;;1.00;41.90;;;;;;5025755;28;46410;-66
2023/04/10 04:27:44;;;;;;;13.85;7.70;;;0.90;41.80;;;;;;5028144;28;48046;-67
2023/04/10 04:30:10;;;;;;;15.03;8.57;;;1.00;41.90;;;;;;5030900;28;45816;-65
2023/04/10 04:32:36;;;;;;;12.05;7.72;;;0.90;41.80;;;;;;5027164;28;46508;-66
2023/04/10 04:35:02;;;;;;;16.53;8.17;;;1.00;42.00;;;;;;5030290;28;46508;-66
2023/04/10 04:37:27;;;;;;;13.47;7.77;;;1.00;42.00;;;;;;5029749;28;47104;-66
2023/04/10 04:39:53;;;;;;;14.17;7.40;;;1.00;42.10;;;;;;5026501;28;46507;-65
2023/04/10 04:42:19;;;;;;;15.93;8.00;;;1.00;42.00;;;;;;5029756;28;46426;-66
2023/04/10 04:44:44;;;;;;;14.47;7.50;;;1.00;42.00;;;;;;5024280;28;46935;-66
2023/04/10 04:47:10;;;;;;;14.93;7.80;;;1.20;42.10;;;;;;5027875;28;46366;-66
2023/04/10 04:49:36;;;;;;;16.30;8.80;;;1.10;42.10;;;;;;5030875;28;46373;-66
2023/04/10 04:52:01;;;;;;;13.43;7.83;;;1.10;42.30;;;;;;5027211;28;46490;-67
2023/04/10 04:54:27;;;;;;;19.03;9.13;;;1.20;42.50;;;;;;5027542;28;45891;-66
2023/04/10 04:56:52;;;;;;;15.17;8.47;;;1.20;42.60;;;;;;5029703;28;47134;-65
2023/04/10 04:59:18;;;;;;;15.93;8.40;;;1.50;42.60;;;;;;5031295;28;46407;-66
2023/04/10 05:01:44;;;;;;;18.00;8.73;;;1.40;42.30;;;;;;5028792;28;46386;-67
2023/04/10 05:04:10;;;;;;;15.10;8.40;;;1.50;42.30;;;;;;5033973;28;46761;-66
2023/04/10 05:06:36;;;;;;;15.35;8.15;;;1.50;42.40;;;;;;5026284;28;46650;-66
2023/04/10 05:09:01;;;;;;;15.77;8.57;;;1.60;42.40;;;;;;5026747;28;46481;-66
2023/04/10 05:11:27;;;;;;;14.83;8.77;;;1.60;42.50;;;;;;5031585;28;46413;-66
2023/04/10 05:13:53;;;;;;;16.70;9.00;;;1.70;42.80;;;;;;5031145;28;46322;-66
2023/04/10 05:16:19;;;;;;;17.13;8.57;;;1.70;42.60;;;;;;5024082;28;46461;-66
2023/04/10 05:18:45;;;;;;;14.87;8.80;;;1.80;42.40;;;;;;5027510;28;46328;-66
2023/04/10 05:21:11;;;;;;;15.73;8.40;;;1.90;42.40;;;;;;5027033;28;46720;-66
2023/04/10 05:23:36;;;;;;;14.33;8.13;;;2.00;42.40;;;;;;5030103;28;46485;-66
2023/04/10 05:26:02;;;;;;;20.37;9.47;;;2.00;42.40;;;;;;5032243;28;46480;-66
2023/04/10 05:28:27;;;;;;;14.20;8.47;;;2.30;42.00;;;;;;5026480;28;46396;-66
2023/04/10 05:30:53;;;;;;;14.90;8.30;;;3.30;42.20;;;;;;5027933;28;46403;-66
2023/04/10 05:33:19;;;;;;;60.97;23.13;;;4.20;42.80;;;;;;5032157;28;46477;-66
2023/04/10 05:35:45;;;;;;;21.47;10.50;;;5.10;42.40;;;;;;5031145;28;46946;-67
2023/04/10 05:38:11;;;;;;;21.80;9.73;;;5.80;41.10;;;;;;5030883;28;46366;-66
2023/04/10 05:40:36;;;;;;;10.83;6.67;;;6.50;40.30;;;;;;5025398;28;46578;-66
2023/04/10 05:43:02;;;;;;;8.63;5.83;;;7.10;39.70;;;;;;5030544;28;46417;-66
2023/04/10 05:45:28;;;;;;;10.00;6.90;;;7.60;39.70;;;;;;5029321;28;46296;-66
2023/04/10 05:47:54;;;;;;;12.53;7.03;;;8.00;39.20;;;;;;5024952;28;46720;-67
2023/04/10 05:50:20;;;;;;;8.10;5.63;;;8.50;38.60;;;;;;5030580;28;45776;-66
2023/04/10 05:52:45;;;;;;;13.33;6.30;;;8.90;38.50;;;;;;5028568;28;46655;-66
2023/04/10 05:55:11;;;;;;;10.70;6.17;;;9.10;38.30;;;;;;5027452;28;46512;-67
2023/04/10 05:57:38;;;;;;;10.50;5.83;;;9.50;37.10;;;;;;5027893;28;46500;-68
2023/04/10 06:00:04;;;;;;;8.57;5.93;;;9.70;35.80;;;;;;5029030;28;46480;-68
2023/04/10 06:02:31;;;;;;;8.83;5.73;;;10.00;32.80;;;;;;5029807;28;46664;-69
2023/04/10 06:04:57;;;;;;;9.10;5.97;;;10.20;31.60;;;;;;5025207;28;47071;-63
2023/04/10 06:07:22;;;;;;;9.10;5.47;;;10.40;30.30;;;;;;5029782;28;46414;-65
2023/04/10 06:09:48;;;;;;;9.37;5.60;;;10.50;29.30;;;;;;5028891;28;46384;-66
2023/04/10 06:12:14;;;;;;;9.63;6.07;;;10.30;28.50;;;;;;5030448;28;45894;-66
2023/04/10 06:14:40;;;;;;;8.30;5.83;;;10.10;26.20;;;;;;5028922;28;46433;-66
2023/04/10 06:17:05;;;;;;;8.97;6.00;;;9.50;27.60;;;;;;5026009;28;46458;-65
2023/04/10 06:19:31;;;;;;;9.80;5.90;;;8.70;29.00;;;;;;5026556;28;46489;-66
2023/04/10 06:21:56;;;;;;;10.67;6.33;;;7.90;30.80;;;;;;5031364;28;46231;-65
2023/04/10 06:24:22;;;;;;;8.50;5.73;;;7.40;31.70;;;;;;5027954;28;47078;-65
2023/04/10 06:26:47;;;;;;;9.17;4.83;;;7.10;33.10;;;;;;5029291;28;46381;-66
2023/04/10 06:29:13;;;;;;;8.90;5.40;;;7.30;32.40;;;;;;5025868;28;46431;-66
2023/04/10 06:31:39;;;;;;;8.80;5.60;;;7.60;31.10;;;;;;5029311;28;45860;-66
2023/04/10 06:34:05;;;;;;;9.97;6.50;;;8.00;29.70;;;;;;5026601;28;47119;-65
2023/04/10 06:36:30;;;;;;;9.97;6.20;;;7.70;30.00;;;;;;5027576;28;46420;-65
2023/04/10 06:38:56;;;;;;;10.10;5.50;;;7.60;30.10;;;;;;5027243;28;46328;-66
2023/04/10 06:41:21;;;;;;;8.67;5.83;;;7.60;30.40;;;;;;5029889;28;46493;-65
2023/04/10 06:43:47;;;;;;;10.43;6.07;;;7.70;30.50;;;;;;5029036;28;47190;-66
2023/04/10 06:46:13;;;;;;;10.27;6.77;;;7.80;30.40;;;;;;5028706;28;46414;-65
2023/04/10 06:48:38;;;;;;;8.43;5.77;;;7.70;30.60;;;;;;5025990;28;46539;-65
2023/04/10 06:51:04;;;;;;;11.00;6.67;;;7.80;30.70;;;;;;5032419;28;45862;-66
2023/04/10 06:53:30;;;;;;;9.60;6.13;;;8.00;30.80;;;;;;5027937;28;46979;-66
2023/04/10 06:55:56;;;;;;;12.00;7.07;;;8.30;30.60;;;;;;5026491;28;46386;-66
2023/04/10 06:58:23;;;;;;;10.37;6.70;;;8.30;30.00;;;;;;5025790;28;46432;-66
2023/04/10 07:00:48;;;;;;;9.80;6.53;;;8.20;30.20;;;;;;5026473;28;46558;-65
2023/04/10 07:03:14;;;;;;;12.30;7.07;;;8.20;31.60;;;;;;5028565;28;46694;-65
2023/04/10 07:05:40;;;;;;;9.53;6.27;;;8.30;30.40;;;;;;5027923;28;46409;-66
2023/04/10 07:08:06;;;;;;;10.37;7.00;;;8.40;30.30;;;;;;5026654;28;46490;-66
2023/04/10 07:10:32;;;;;;;10.70;6.37;;;8.50;30.30;;;;;;5030667;28;46554;-66
2023/04/10 07:12:57;;;;;;;12.67;6.97;;;8.80;30.30;;;;;;5033503;28;46156;-66
2023/04/10 07:15:24;;;;;;;10.50;6.70;;;8.90;29.70;;;;;;5035943;28;46271;-66
2023/04/10 07:17:50;;;;;;;11.03;5.97;;;9.10;29.50;;;;;;5031925;28;45771;-65
2023/04/10 07:20:15;;;;;;;10.10;6.87;;;9.30;29.00;;;;;;5029813;28;46700;-65
2023/04/10 07:22:41;;;;;;;10.97;6.93;;;9.40;29.00;;;;;;5032732;28;46626;-65
2023/04/10 07:25:07;;;;;;;9.67;6.73;;;9.40;28.50;;;;;;5032165;28;46374;-66
2023/04/10 07:27:33;;;;;;;11.07;6.80;;;9.40;27.90;;;;;;5039700;28;46537;-65
2023/04/10 07:29:58;;;;;;;15.83;7.27;;;9.40;28.40;;;;;;5028988;28;45933;-65
2023/04/10 07:32:24;;;;;;;17.03;6.70;;;9.60;27.80;;;;;;5033830;28;46709;-65
2023/04/10 07:34:52;;;;;;;10.73;7.40;;;9.60;27.40;;;;;;5029193;28;46281;-65
2023/04/10 07:37:18;;;;;;;10.57;6.70;;;9.70;27.60;;;;;;5028232;28;46259;-65
2023/04/10 07:39:44;;;;;;;9.90;6.60;;;9.70;26.70;;;;;;5032361;28;46430;-65
2023/04/10 07:42:12;;;;;;;8.60;6.40;;;9.80;26.70;;;;;;5030769;28;46152;-66
2023/04/10 07:44:38;;;;;;;7.83;5.33;;;10.00;26.10;;;;;;5030751;28;46366;-66
2023/04/10 07:47:04;;;;;;;9.60;6.60;;;10.20;25.50;;;;;;5026436;28;45828;-66
2023/04/10 07:49:29;;;;;;;12.27;7.67;;;10.30;25.30;;;;;;5028412;28;46451;-65
2023/04/10 07:51:55;;;;;;;16.63;7.73;;;10.40;25.20;;;;;;5030677;28;47592;-65
2023/04/10 07:54:21;;;;;;;10.40;6.63;;;10.50;25.30;;;;;;5029475;28;46365;-66
2023/04/10 07:56:46;;;;;;;10.07;6.50;;;10.60;25.30;;;;;;5029459;28;46383;-66
2023/04/10 07:59:12;;;;;;;9.83;7.10;;;10.60;25.10;;;;;;5024114;28;46469;-66
2023/04/10 08:01:37;;;;;;;9.80;6.70;;;10.70;25.00;;;;;;5030576;28;47024;-66
2023/04/10 08:04:03;;;;;;;9.97;6.60;;;10.70;24.60;;;;;;5027932;28;46534;-66
2023/04/10 08:06:30;;;;;;;8.13;5.70;;;10.90;24.50;;;;;;5031109;28;46501;-67
2023/04/10 08:08:56;;;;;;;10.10;6.60;;;10.90;24.00;;;;;;5033452;28;46424;-66
2023/04/10 08:11:28;;;;;;;9.07;6.10;;;10.90;23.70;;;;;;5032692;28;46451;-66
2023/04/10 08:13:57;;;;;;;9.93;6.23;;;11.00;23.50;;;;;;5027946;28;46303;-66
2023/04/10 08:16:27;;;;;;;9.07;6.37;;;11.10;22.60;;;;;;5028106;28;46315;-66
2023/04/10 08:18:54;;;;;;;9.07;5.50;;;11.10;22.80;;;;;;5027968;28;46426;-66
2023/04/10 08:21:21;;;;;;;7.20;5.33;;;11.20;22.30;;;;;;5030729;28;46400;-66
2023/04/10 08:23:50;;;;;;;8.77;5.70;;;11.20;22.50;;;;;;5028382;28;45867;-66
2023/04/10 08:26:16;;;;;;;8.03;5.07;;;11.40;22.60;;;;;;5030804;28;46573;-66
2023/04/10 08:28:46;;;;;;;9.60;5.77;;;11.60;21.80;;;;;;5027903;28;46459;-63
2023/04/10 08:31:12;;;;;;;10.40;6.30;;;11.50;21.30;;;;;;5052090;28;46757;-66
2023/04/10 08:33:38;;;;;;;10.33;6.60;;;11.60;21.10;;;;;;5049461;28;46366;-67
2023/04/10 08:36:05;;;;;;;11.00;6.33;;;11.70;21.00;;;;;;5050209;28;46480;-65
2023/04/10 08:38:30;;;;;;;12.83;7.60;;;11.80;20.40;;;;;;5049615;28;46432;-64
2023/04/10 08:40:56;;;;;;;10.43;5.60;;;11.80;20.00;;;;;;5046761;28;46932;-65
2023/04/10 08:43:22;;;;;;;8.70;5.67;;;12.00;20.00;;;;;;5049121;28;46371;-66
2023/04/10 08:45:49;;;;;;;8.37;5.03;;;12.20;19.50;;;;;;5050885;28;46360;-66
2023/04/10 08:48:17;;;;;;;7.80;5.10;;;12.20;19.30;;;;;;5048075;28;46612;-66
2023/04/10 08:50:44;;;;;;;7.90;4.83;;;12.30;18.80;;;;;;5048125;28;46126;-65
2023/04/10 08:53:12;;;;;;;8.03;4.50;;;12.20;17.80;;;;;;5051215;28;46409;-66
2023/04/10 08:55:42;;;;;;;7.67;4.80;;;12.10;16.80;;;;;;5043648;28;46390;-66
2023/04/10 08:58:12;;;;;;;7.93;5.10;;;12.20;17.00;;;;;;5049681;28;46437;-64
2023/04/10 09:00:38;;;;;;;9.03;5.40;;;12.30;17.00;;;;;;5049052;28;48030;-66
2023/04/10 09:03:10;;;;;;;8.67;5.60;;;12.50;17.10;;;;;;5048752;28;46287;-66
2023/04/10 09:05:36;;;;;;;8.63;5.17;;;12.50;16.50;;;;;;5046922;28;46485;-66
2023/04/10 09:08:04;;;;;;;8.30;4.90;;;12.50;16.50;;;;;;5048247;28;46351;-65
2023/04/10 09:10:29;;;;;;;9.17;5.90;;;12.70;17.20;;;;;;5051935;28;46406;-65
2023/04/10 09:12:55;;;;;;;7.17;4.73;;;12.80;17.30;;;;;;5050462;28;46472;-65
2023/04/10 09:15:21;;;;;;;7.50;4.50;;;12.90;16.60;;;;;;5050496;28;46298;-65
2023/04/10 09:18:00;;;;;;;8.23;4.60;;;12.90;16.10;;;;;;5051739;28;46647;-65
2023/04/10 09:20:29;;;;;;;7.70;4.87;;;12.80;14.90;;;;;;5054778;28;46465;-66
2023/04/10 09:22:55;;;;;;;7.20;4.63;;;12.90;15.50;;;;;;5049906;28;46349;-65
2023/04/10 09:25:32;;;;;;;7.43;5.00;;;12.90;15.10;;;;;;5050302;28;46318;-65
2023/04/10 09:28:06;;;;;;;8.10;4.67;;;13.00;14.80;;;;;;5045957;28;45896;-65
2023/04/10 09:30:34;;;;;;;6.67;4.13;;;13.20;13.90;;;;;;5046485;28;47328;-65
2023/04/10 09:33:00;;;;;;;5.53;3.70;;;13.20;14.50;;;;;;5049227;28;46468;-66
2023/04/10 09:35:36;;;;;;;7.60;4.77;;;13.20;13.90;;;;;;5048224;28;46371;-66
2023/04/10 09:38:16;;;;;;;9.03;4.70;;;13.20;13.10;;;;;;5046894;28;46447;-66
2023/04/10 09:40:42;;;;;;;7.17;4.00;;;13.10;12.90;;;;;;5048313;28;46472;-66
2023/04/10 09:43:25;;;;;;;8.03;4.97;;;13.20;13.30;;;;;;5047935;28;46422;-66
2023/04/10 09:45:52;;;;;;;6.13;4.00;;;13.30;12.70;;;;;;5050219;28;46538;-66
2023/04/10 09:48:19;;;;;;;7.47;4.97;;;13.50;13.20;;;;;;5049446;28;45943;-65
2023/04/10 09:50:44;;;;;;;6.60;4.07;;;13.60;12.50;;;;;;5048418;28;46574;-65
2023/04/10 09:53:15;;;;;;;6.40;4.30;;;13.70;11.80;;;;;;5045958;28;46670;-66
2023/04/10 09:55:42;;;;;;;6.87;4.63;;;13.70;12.00;;;;;;5050749;28;46359;-66
2023/04/10 09:58:08;;;;;;;6.50;4.10;;;13.80;11.90;;;;;;5048596;28;46420;-65
2023/04/10 10:00:42;;;;;;;12.23;4.87;;;13.80;11.70;;;;;;5048589;28;46685;-65
2023/04/10 10:03:11;;;;;;;7.50;4.60;;;13.80;11.30;;;;;;5048109;28;46313;-65
2023/04/10 10:05:42;;;;;;;6.20;3.90;;;13.70;11.30;;;;;;5051032;28;45903;-65
2023/04/10 10:08:10;;;;;;;6.97;4.23;;;13.60;11.00;;;;;;5045497;28;46554;-67
2023/04/10 10:10:52;;;;;;;6.60;4.60;;;13.60;11.60;;;;;;5047418;28;46358;-65
2023/04/10 10:13:28;;;;;;;6.47;4.43;;;13.60;11.20;;;;;;5046694;28;46386;-64
2023/04/10 10:16:04;;;;;;;7.00;4.00;;;13.80;11.00;;;;;;5049095;28;46422;-67
2023/04/10 10:18:34;;;;;;;7.00;3.63;;;14.00;10.90;;;;;;5051305;28;46400;-66
2023/04/10 10:21:01;;;;;;;5.03;3.60;;;14.00;10.70;;;;;;5046891;28;47207;-66
2023/04/10 10:23:27;;;;;;;6.63;4.10;;;14.00;10.40;;;;;;5047516;28;46519;-67
2023/04/10 10:25:54;;;;;;;6.07;3.87;;;13.90;10.50;;;;;;5051436;28;46129;-66
2023/04/10 10:28:20;;;;;;;6.30;3.87;;;14.00;10.50;;;;;;5045744;28;46449;-65
2023/04/10 10:30:49;;;;;;;6.33;4.13;;;14.00;10.80;;;;;;5048672;28;46604;-66
2023/04/10 10:33:14;;;;;;;5.13;3.27;;;14.10;10.70;;;;;;5048517;28;46346;-65
2023/04/10 10:35:41;;;;;;;5.27;3.80;;;14.20;9.10;;;;;;5050533;28;46585;-65
2023/04/10 10:38:07;;;;;;;6.57;4.30;;;14.10;8.90;;;;;;5045926;28;46434;-65
2023/04/10 10:40:32;;;;;;;5.53;3.63;;;14.20;9.50;;;;;;5047903;28;47157;-65
2023/04/10 10:43:25;;;;;;;5.90;4.17;;;14.00;8.60;;;;;;5051303;28;46283;-65
2023/04/10 10:45:57;;;;;;;7.10;3.83;;;14.20;9.20;;;;;;5053146;28;45926;-65
2023/04/10 10:48:22;;;;;;;8.67;4.50;;;14.30;8.70;;;;;;5052285;28;45874;-66
2023/04/10 10:51:00;;;;;;;4.93;3.40;;;14.20;8.80;;;;;;5052541;28;46365;-66
2023/04/10 10:53:39;;;;;;;6.53;4.03;;;14.20;8.50;;;;;;5051205;28;46489;-65
2023/04/10 10:56:17;;;;;;;7.10;4.03;;;14.20;8.20;;;;;;5053389;28;46447;-65
2023/04/10 10:58:47;;;;;;;5.73;3.80;;;14.10;8.20;;;;;;5048611;28;46443;-67
2023/04/10 11:01:13;;;;;;;5.50;3.63;;;14.20;8.70;;;;;;5054161;28;47052;-64
2023/04/10 11:03:39;;;;;;;6.00;4.10;;;14.40;8.60;;;;;;5050172;28;46696;-63
2023/04/10 11:06:11;;;;;;;6.70;3.97;;;14.30;7.90;;;;;;5051486;28;46342;-64
2023/04/10 11:08:47;;;;;;;4.47;3.20;;;14.40;8.10;;;;;;5044497;28;46723;-65
2023/04/10 11:11:22;;;;;;;5.30;3.53;;;14.30;7.30;;;;;;5054772;28;46555;-64
2023/04/10 11:13:59;;;;;;;5.20;3.30;;;14.40;7.30;;;;;;5050234;28;46859;-66
2023/04/10 11:16:38;;;;;;;5.47;3.63;;;14.50;7.40;;;;;;5048707;28;45982;-63
2023/04/10 11:19:07;;;;;;;5.90;3.63;;;14.50;7.40;;;;;;5050443;28;46535;-65
2023/04/10 11:21:33;;;;;;;5.00;3.13;;;14.50;7.40;;;;;;5051827;28;46574;-65
2023/04/10 11:23:59;;;;;;;5.40;3.53;;;14.50;7.50;;;;;;5047219;28;46397;-64
2023/04/10 11:26:40;;;;;;;6.50;3.23;;;14.70;7.50;;;;;;5048889;28;46508;-65
2023/04/10 11:29:14;;;;;;;5.07;2.93;;;14.90;7.70;;;;;;5049011;28;45843;-64
2023/04/10 11:31:41;;;;;;;5.43;3.23;;;15.00;7.30;;;;;;5050781;28;46592;-63
2023/04/10 11:34:09;;;;;;;4.97;3.30;;;15.10;7.80;;;;;;5052267;28;46456;-64
2023/04/10 11:36:38;;;;;;;5.83;3.40;;;15.10;6.90;;;;;;5055168;28;46348;-66
2023/04/10 11:39:09;;;;;;;4.80;3.13;;;15.00;6.70;;;;;;5051443;28;46349;-67
2023/04/10 11:41:36;;;;;;;6.23;4.17;;;15.00;7.40;;;;;;5055151;28;46493;-66
2023/04/10 11:44:06;;;;;;;5.67;3.30;;;15.00;6.80;;;;;;5049968;28;46456;-66
2023/04/10 11:46:40;;;;;;;10.63;3.40;;;15.00;7.00;;;;;;5046549;28;46469;-66
2023/04/10 11:49:08;;;;;;;5.00;3.40;;;15.00;6.50;;;;;;5047763;28;46502;-65
2023/04/10 11:51:35;;;;;;;6.40;3.57;;;15.10;6.20;;;;;;5049429;28;47142;-65
2023/04/10 11:54:09;;;;;;;5.53;3.03;;;15.10;6.20;;;;;;5045551;28;46447;-66
2023/04/10 11:56:36;;;;;;;4.87;3.27;;;15.30;6.30;;;;;;5057642;28;46468;-66
2023/04/10 11:59:06;;;;;;;5.30;3.47;;;15.50;5.80;;;;;;5048540;28;46500;-66
2023/04/10 12:01:32;;;;;;;6.40;3.60;;;15.40;5.70;;;;;;5047572;28;46496;-66
2023/04/10 12:03:58;;;;;;;6.20;3.27;;;15.20;5.80;;;;;;5045356;28;46448;-66
2023/04/10 12:06:24;;;;;;;5.27;3.33;;;15.10;5.30;;;;;;5047764;28;46425;-66
2023/04/10 12:08:50;;;;;;;4.90;3.37;;;15.00;4.50;;;;;;5046935;28;46601;-66
2023/04/10 12:11:27;;;;;;;5.20;3.17;;;15.10;5.40;;;;;;5046638;28;46722;-65
2023/04/10 12:13:57;;;;;;;4.90;3.37;;;15.20;5.20;;;;;;5049888;28;46486;-65
2023/04/10 12:16:26;;;;;;;5.90;3.50;;;15.30;5.30;;;;;;5046468;28;45985;-64
2023/04/10 12:18:52;;;;;;;5.60;3.50;;;15.30;4.70;;;;;;5049129;28;46691;-66
2023/04/10 12:21:18;;;;;;;5.43;3.53;;;15.30;4.70;;;;;;5046347;28;46616;-66
2023/04/10 12:23:44;;;;;;;5.27;3.50;;;15.30;4.80;;;;;;5047184;28;46483;-65
2023/04/10 12:26:15;;;;;;;5.60;3.80;;;15.30;4.50;;;;;;5048664;28;46364;-65
2023/04/10 12:28:49;;;;;;;5.60;3.23;;;15.50;4.90;;;;;;5048027;28;46393;-66
2023/04/10 12:31:15;;;;;;;5.20;3.53;;;15.60;4.90;;;;;;5052562;28;46738;-66
2023/04/10 12:33:45;;;;;;;5.50;3.80;;;15.60;4.30;;;;;;5050907;28;46562;-65
2023/04/10 12:36:30;;;;;;;5.30;3.47;;;15.60;4.50;;;;;;5052452;28;46437;-64
2023/04/10 12:38:57;;;;;;;5.10;3.30;;;15.60;4.50;;;;;;5046517;28;46295;-66
2023/04/10 12:41:29;;;;;;;4.80;3.37;;;15.60;4.20;;;;;;5046051;28;46605;-65
2023/04/10 12:44:10;;;;;;;5.77;3.50;;;15.50;4.40;;;;;;5046043;28;45822;-65
2023/04/10 12:46:36;;;;;;;5.60;3.37;;;15.60;3.80;;;;;;5048105;28;46535;-64
2023/04/10 12:49:15;;;;;;;4.83;3.00;;;15.50;3.60;;;;;;5049416;28;46402;-65
2023/04/10 12:51:45;;;;;;;5.23;3.20;;;15.50;3.60;;;;;;5046230;28;47048;-65